sensor_id;sensor_type;location;lat;lon;timestamp;pressure;altitude;pressure_sealevel;temperature;humidity
15674;BME280;7937;48.090;16.212;2024-01-10T00:00:37;99090.31;;;-11.86;100.00
15674;BME280;7937;48.090;16.212;2024-01-10T00:03:40;98703.56;;;-14.18;100.00
15674;BME280;7937;48.090;16.212;2024-01-10T00:06:43;99072.44;;;-11.89;100.00
15674;BME280;7937;48.090;16.212;2024-01-10T00:09:47;98938.16;;;-12.70;100.00
15674;BME280;7937;48.090;16.212;2024-01-10T00:12:52;98674.34;;;-14.35;100.00
15674;BME280;7937;48.090;16.212;2024-01-10T00:15:55;98764.03;;;-13.95;100.00
15674;BME280;7937;48.090;16.212;2024-01-10T00:18:58;98943.34;;;-12.71;100.00
15674;BME280;7937;48.090;16.212;2024-01-10T00:22:00;98792.38;;;-13.58;100.00
15674;BME280;7937;48.090;16.212;2024-01-10T00:25:04;98962.97;;;-12.50;100.00
15674;BME280;7937;48.090;16.212;2024-01-10T00:28:07;98851.25;;;-13.17;100.00
15674;BME280;7937;48.090;16.212;2024-01-10T00:31:10;98637.78;;;-14.57;100.00
15674;BME280;7937;48.090;16.212;2024-01-10T00:34:13;98697.09;;;-14.27;100.00
15674;BME280;7937;48.090;16.212;2024-01-10T00:37:16;98830.00;;;-13.60;100.00
15674;BME280;7937;48.090;16.212;2024-01-10T00:40:22;98886.28;;;-12.97;100.00
15674;BME280;7937;48.090;16.212;2024-01-10T00:43:25;98839.59;;;-13.65;100.00
15674;BME280;7937;48.090;16.212;2024-01-10T00:46:28;98992.97;;;-12.32;100.00
15674;BME280;7937;48.090;16.212;2024-01-10T00:49:30;98657.41;;;-14.37;100.00
15674;BME280;7937;48.090;16.212;2024-01-10T00:52:33;98864.63;;;-13.10;100.00
15674;BME280;7937;48.090;16.212;2024-01-10T00:55:40;98816.63;;;-13.46;100.00
15674;BME280;7937;48.090;16.212;2024-01-10T00:58:43;99151.81;;;-11.06;100.00
15674;BME280;7937;48.090;16.212;2024-01-10T01:01:48;98960.78;;;-12.20;100.00
15674;BME280;7937;48.090;16.212;2024-01-10T01:04:51;98962.78;;;-12.27;100.00
15674;BME280;7937;48.090;16.212;2024-01-10T01:07:54;99032.91;;;-11.68;100.00
15674;BME280;7937;48.090;16.212;2024-01-10T01:11:00;98968.63;;;-12.23;100.00
15674;BME280;7937;48.090;16.212;2024-01-10T01:14:03;99018.00;;;-11.98;100.00
15674;BME280;7937;48.090;16.212;2024-01-10T01:17:07;98821.88;;;-13.29;100.00
15674;BME280;7937;48.090;16.212;2024-01-10T01:20:11;98879.75;;;-12.84;100.00
15674;BME280;7937;48.090;16.212;2024-01-10T01:23:15;98858.16;;;-12.98;100.00
15674;BME280;7937;48.090;16.212;2024-01-10T01:26:36;99177.38;;;-11.03;100.00
15674;BME280;7937;48.090;16.212;2024-01-10T01:29:39;98908.84;;;-12.64;100.00
15674;BME280;7937;48.090;16.212;2024-01-10T01:32:41;98859.56;;;-13.12;100.00
15674;BME280;7937;48.090;16.212;2024-01-10T01:35:44;98840.59;;;-13.08;100.00
15674;BME280;7937;48.090;16.212;2024-01-10T01:38:49;98718.28;;;-13.83;100.00
15674;BME280;7937;48.090;16.212;2024-01-10T01:41:52;98601.81;;;-14.34;100.00
15674;BME280;7937;48.090;16.212;2024-01-10T01:44:55;98887.13;;;-12.57;100.00
15674;BME280;7937;48.090;16.212;2024-01-10T01:47:58;98895.31;;;-12.68;100.00
15674;BME280;7937;48.090;16.212;2024-01-10T01:51:06;98867.19;;;-13.10;100.00
15674;BME280;7937;48.090;16.212;2024-01-10T01:54:10;99145.72;;;-11.23;100.00
15674;BME280;7937;48.090;16.212;2024-01-10T01:57:16;98994.22;;;-12.40;100.00
15674;BME280;7937;48.090;16.212;2024-01-10T02:00:19;98773.06;;;-13.87;100.00
15674;BME280;7937;48.090;16.212;2024-01-10T02:03:22;98859.25;;;-13.04;100.00
15674;BME280;7937;48.090;16.212;2024-01-10T02:06:25;98638.66;;;-14.58;100.00
15674;BME280;7937;48.090;16.212;2024-01-10T02:09:28;99088.97;;;-11.76;100.00
15674;BME280;7937;48.090;16.212;2024-01-10T02:12:30;98673.72;;;-14.60;100.00
15674;BME280;7937;48.090;16.212;2024-01-10T02:15:33;98615.06;;;-14.65;100.00
15674;BME280;7937;48.090;16.212;2024-01-10T02:18:35;98769.88;;;-13.71;100.00
15674;BME280;7937;48.090;16.212;2024-01-10T02:21:38;99118.97;;;-11.58;100.00
15674;BME280;7937;48.090;16.212;2024-01-10T02:24:40;98641.00;;;-14.52;100.00
15674;BME280;7937;48.090;16.212;2024-01-10T02:27:43;99141.19;;;-11.18;100.00
15674;BME280;7937;48.090;16.212;2024-01-10T02:30:46;98582.81;;;-14.67;100.00
15674;BME280;7937;48.090;16.212;2024-01-10T02:33:52;98612.75;;;-14.30;100.00
15674;BME280;7937;48.090;16.212;2024-01-10T02:36:55;98601.72;;;-14.51;100.00
15674;BME280;7937;48.090;16.212;2024-01-10T02:39:58;98996.47;;;-12.14;100.00
15674;BME280;7937;48.090;16.212;2024-01-10T02:43:02;99000.38;;;-11.86;100.00
15674;BME280;7937;48.090;16.212;2024-01-10T02:46:04;98871.28;;;-12.86;100.00
15674;BME280;7937;48.090;16.212;2024-01-10T02:49:07;98992.94;;;-12.11;100.00
15674;BME280;7937;48.090;16.212;2024-01-10T02:52:10;99010.63;;;-12.05;100.00
15674;BME280;7937;48.090;16.212;2024-01-10T02:55:13;98855.41;;;-12.94;100.00
15674;BME280;7937;48.090;16.212;2024-01-10T02:58:16;98641.09;;;-14.35;100.00
15674;BME280;7937;48.090;16.212;2024-01-10T03:01:19;99010.09;;;-12.32;100.00
15674;BME280;7937;48.090;16.212;2024-01-10T03:04:21;98854.75;;;-13.38;100.00
15674;BME280;7937;48.090;16.212;2024-01-10T03:07:26;98982.69;;;-12.32;100.00
15674;BME280;7937;48.090;16.212;2024-01-10T03:10:29;98880.69;;;-12.86;100.00
15674;BME280;7937;48.090;16.212;2024-01-10T03:13:31;98712.44;;;-13.86;100.00
15674;BME280;7937;48.090;16.212;2024-01-10T03:16:37;98925.28;;;-12.89;100.00
15674;BME280;7937;48.090;16.212;2024-01-10T03:19:40;99036.09;;;-12.19;100.00
15674;BME280;7937;48.090;16.212;2024-01-10T03:22:45;98779.41;;;-13.75;100.00
15674;BME280;7937;48.090;16.212;2024-01-10T03:25:48;98868.69;;;-13.05;100.00
15674;BME280;7937;48.090;16.212;2024-01-10T03:28:54;99047.22;;;-12.00;100.00
15674;BME280;7937;48.090;16.212;2024-01-10T03:31:58;99022.25;;;-12.17;100.00
15674;BME280;7937;48.090;16.212;2024-01-10T03:35:00;98928.22;;;-12.78;100.00
15674;BME280;7937;48.090;16.212;2024-01-10T03:38:03;98981.81;;;-12.51;100.00
15674;BME280;7937;48.090;16.212;2024-01-10T03:41:06;98650.22;;;-14.70;100.00
15674;BME280;7937;48.090;16.212;2024-01-10T03:44:08;98873.72;;;-13.42;100.00
15674;BME280;7937;48.090;16.212;2024-01-10T03:47:11;99047.50;;;-12.06;100.00
15674;BME280;7937;48.090;16.212;2024-01-10T03:50:13;98543.75;;;-15.13;100.00
15674;BME280;7937;48.090;16.212;2024-01-10T03:53:16;99138.94;;;-11.82;100.00
15674;BME280;7937;48.090;16.212;2024-01-10T03:56:18;99042.97;;;-12.40;100.00
15674;BME280;7937;48.090;16.212;2024-01-10T03:59:21;98888.06;;;-13.38;100.00
15674;BME280;7937;48.090;16.212;2024-01-10T04:02:23;98843.00;;;-13.64;100.00
15674;BME280;7937;48.090;16.212;2024-01-10T04:05:26;98863.38;;;-13.61;100.00
15674;BME280;7937;48.090;16.212;2024-01-10T04:08:29;98875.75;;;-13.30;100.00
15674;BME280;7937;48.090;16.212;2024-01-10T04:11:32;98656.03;;;-14.87;100.00
15674;BME280;7937;48.090;16.212;2024-01-10T04:14:34;98637.22;;;-15.07;100.00
15674;BME280;7937;48.090;16.212;2024-01-10T04:17:37;98950.09;;;-12.89;100.00
15674;BME280;7937;48.090;16.212;2024-01-10T04:20:39;99042.47;;;-12.49;100.00
15674;BME280;7937;48.090;16.212;2024-01-10T04:23:42;99132.56;;;-11.75;100.00
15674;BME280;7937;48.090;16.212;2024-01-10T04:26:45;98701.03;;;-14.40;100.00
15674;BME280;7937;48.090;16.212;2024-01-10T04:29:47;98847.25;;;-13.63;100.00
15674;BME280;7937;48.090;16.212;2024-01-10T04:32:52;98946.97;;;-12.76;100.00
15674;BME280;7937;48.090;16.212;2024-01-10T04:35:55;98830.34;;;-13.47;100.00
15674;BME280;7937;48.090;16.212;2024-01-10T04:38:58;98950.41;;;-12.97;100.00
15674;BME280;7937;48.090;16.212;2024-01-10T04:42:01;98776.25;;;-14.02;100.00
15674;BME280;7937;48.090;16.212;2024-01-10T04:45:05;98817.25;;;-13.82;100.00
15674;BME280;7937;48.090;16.212;2024-01-10T04:48:09;98998.31;;;-12.57;100.00
15674;BME280;7937;48.090;16.212;2024-01-10T04:51:13;98752.13;;;-14.17;100.00
15674;BME280;7937;48.090;16.212;2024-01-10T04:54:19;98714.16;;;-14.27;100.00
15674;BME280;7937;48.090;16.212;2024-01-10T04:57:22;98811.38;;;-13.84;100.00
15674;BME280;7937;48.090;16.212;2024-01-10T05:00:26;98899.47;;;-13.05;100.00
15674;BME280;7937;48.090;16.212;2024-01-10T05:03:29;98560.97;;;-14.96;100.00
15674;BME280;7937;48.090;16.212;2024-01-10T05:06:34;98904.38;;;-12.80;100.00
15674;BME280;7937;48.090;16.212;2024-01-10T05:09:36;98649.78;;;-14.59;100.00
15674;BME280;7937;48.090;16.212;2024-01-10T05:12:39;98799.78;;;-13.51;100.00
15674;BME280;7937;48.090;16.212;2024-01-10T05:15:41;98710.06;;;-14.11;100.00
15674;BME280;7937;48.090;16.212;2024-01-10T05:18:44;99020.63;;;-11.99;100.00
15674;BME280;7937;48.090;16.212;2024-01-10T05:21:48;98975.25;;;-12.38;100.00
15674;BME280;7937;48.090;16.212;2024-01-10T05:24:50;99104.28;;;-11.35;100.00
15674;BME280;7937;48.090;16.212;2024-01-10T05:27:53;99109.75;;;-11.43;100.00
15674;BME280;7937;48.090;16.212;2024-01-10T05:30:55;98934.06;;;-12.74;100.00
15674;BME280;7937;48.090;16.212;2024-01-10T05:33:58;98979.97;;;-12.48;100.00
15674;BME280;7937;48.090;16.212;2024-01-10T05:37:01;98648.84;;;-14.36;100.00
15674;BME280;7937;48.090;16.212;2024-01-10T05:40:04;99053.63;;;-11.71;100.00
15674;BME280;7937;48.090;16.212;2024-01-10T05:43:09;98562.38;;;-14.89;100.00
15674;BME280;7937;48.090;16.212;2024-01-10T05:46:15;98792.16;;;-13.33;100.00
15674;BME280;7937;48.090;16.212;2024-01-10T05:49:18;98713.28;;;-13.86;100.00
15674;BME280;7937;48.090;16.212;2024-01-10T05:52:21;98836.84;;;-13.19;100.00
15674;BME280;7937;48.090;16.212;2024-01-10T05:55:25;98658.97;;;-14.33;100.00
15674;BME280;7937;48.090;16.212;2024-01-10T05:58:28;99010.50;;;-12.02;100.00
15674;BME280;7937;48.090;16.212;2024-01-10T06:01:33;98596.53;;;-14.49;100.00
15674;BME280;7937;48.090;16.212;2024-01-10T06:04:36;99002.03;;;-12.04;100.00
15674;BME280;7937;48.090;16.212;2024-01-10T06:07:40;98573.56;;;-14.92;100.00
15674;BME280;7937;48.090;16.212;2024-01-10T06:10:47;98657.69;;;-14.23;100.00
15674;BME280;7937;48.090;16.212;2024-01-10T06:13:52;99029.97;;;-11.97;100.00
15674;BME280;7937;48.090;16.212;2024-01-10T06:16:58;98966.59;;;-12.35;100.00
15674;BME280;7937;48.090;16.212;2024-01-10T06:20:04;99079.59;;;-11.58;100.00
15674;BME280;7937;48.090;16.212;2024-01-10T06:23:09;98735.03;;;-13.96;100.00
15674;BME280;7937;48.090;16.212;2024-01-10T06:26:12;98856.38;;;-13.17;100.00
15674;BME280;7937;48.090;16.212;2024-01-10T06:29:15;98972.06;;;-12.43;100.00
15674;BME280;7937;48.090;16.212;2024-01-10T06:32:18;98846.91;;;-13.35;100.00
15674;BME280;7937;48.090;16.212;2024-01-10T06:35:21;99023.31;;;-12.21;100.00
15674;BME280;7937;48.090;16.212;2024-01-10T06:38:27;98994.59;;;-12.50;100.00
15674;BME280;7937;48.090;16.212;2024-01-10T06:41:37;98731.91;;;-14.45;100.00
15674;BME280;7937;48.090;16.212;2024-01-10T06:44:40;99036.22;;;-12.43;100.00
15674;BME280;7937;48.090;16.212;2024-01-10T06:47:45;99200.13;;;-11.71;100.00
15674;BME280;7937;48.090;16.212;2024-01-10T06:50:48;98902.59;;;-13.18;100.00
15674;BME280;7937;48.090;16.212;2024-01-10T06:53:51;99105.84;;;-11.89;100.00
15674;BME280;7937;48.090;16.212;2024-01-10T06:56:54;98850.13;;;-13.50;100.00
15674;BME280;7937;48.090;16.212;2024-01-10T06:59:57;98656.31;;;-14.94;100.00
15674;BME280;7937;48.090;16.212;2024-01-10T07:03:04;98783.59;;;-14.15;100.00
15674;BME280;7937;48.090;16.212;2024-01-10T07:06:07;98929.25;;;-13.02;100.00
15674;BME280;7937;48.090;16.212;2024-01-10T07:09:10;99097.00;;;-12.43;100.00
15674;BME280;7937;48.090;16.212;2024-01-10T07:12:14;99156.63;;;-11.76;100.00
15674;BME280;7937;48.090;16.212;2024-01-10T07:15:16;98840.66;;;-13.69;100.00
15674;BME280;7937;48.090;16.212;2024-01-10T07:18:19;99132.31;;;-11.68;100.00
15674;BME280;7937;48.090;16.212;2024-01-10T07:21:23;98803.47;;;-14.21;100.00
15674;BME280;7937;48.090;16.212;2024-01-10T07:24:25;98912.66;;;-13.14;100.00
15674;BME280;7937;48.090;16.212;2024-01-10T07:27:28;98982.91;;;-12.57;100.00
15674;BME280;7937;48.090;16.212;2024-01-10T07:30:31;98970.34;;;-12.63;100.00
15674;BME280;7937;48.090;16.212;2024-01-10T07:33:35;99147.94;;;-11.73;100.00
15674;BME280;7937;48.090;16.212;2024-01-10T07:36:42;98893.53;;;-13.07;100.00
15674;BME280;7937;48.090;16.212;2024-01-10T07:39:45;98925.38;;;-12.90;100.00
15674;BME280;7937;48.090;16.212;2024-01-10T07:42:47;98609.28;;;-14.90;100.00
15674;BME280;7937;48.090;16.212;2024-01-10T07:45:50;99139.50;;;-11.56;100.00
15674;BME280;7937;48.090;16.212;2024-01-10T07:48:53;98863.22;;;-13.36;100.00
15674;BME280;7937;48.090;16.212;2024-01-10T07:51:56;99180.22;;;-11.47;100.00
15674;BME280;7937;48.090;16.212;2024-01-10T07:54:59;99102.16;;;-11.84;100.00
15674;BME280;7937;48.090;16.212;2024-01-10T07:58:03;98708.47;;;-14.14;100.00
15674;BME280;7937;48.090;16.212;2024-01-10T08:01:07;98622.75;;;-14.65;100.00
15674;BME280;7937;48.090;16.212;2024-01-10T08:04:14;99108.16;;;-11.46;100.00
15674;BME280;7937;48.090;16.212;2024-01-10T08:07:17;98661.81;;;-14.20;100.00
15674;BME280;7937;48.090;16.212;2024-01-10T08:10:20;98845.16;;;-12.94;100.00
15674;BME280;7937;48.090;16.212;2024-01-10T08:13:22;98757.34;;;-13.77;100.00
15674;BME280;7937;48.090;16.212;2024-01-10T08:16:25;98670.50;;;-14.04;100.00
15674;BME280;7937;48.090;16.212;2024-01-10T08:19:28;98629.66;;;-14.26;100.00
15674;BME280;7937;48.090;16.212;2024-01-10T08:22:31;98894.50;;;-12.50;100.00
15674;BME280;7937;48.090;16.212;2024-01-10T08:25:35;99013.03;;;-11.82;100.00
15674;BME280;7937;48.090;16.212;2024-01-10T08:28:37;98788.69;;;-13.13;100.00
15674;BME280;7937;48.090;16.212;2024-01-10T08:31:41;98851.69;;;-12.68;100.00
15674;BME280;7937;48.090;16.212;2024-01-10T08:34:44;98834.56;;;-12.67;100.00
15674;BME280;7937;48.090;16.212;2024-01-10T08:37:47;98970.81;;;-11.78;100.00
15674;BME280;7937;48.090;16.212;2024-01-10T08:40:50;98937.59;;;-12.00;100.00
15674;BME280;7937;48.090;16.212;2024-01-10T08:43:53;98761.06;;;-12.87;100.00
15674;BME280;7937;48.090;16.212;2024-01-10T08:46:55;98684.63;;;-13.17;100.00
15674;BME280;7937;48.090;16.212;2024-01-10T08:49:58;99154.06;;;-10.10;100.00
15674;BME280;7937;48.090;16.212;2024-01-10T08:53:02;98813.31;;;-12.14;100.00
15674;BME280;7937;48.090;16.212;2024-01-10T08:56:07;98955.00;;;-11.32;100.00
15674;BME280;7937;48.090;16.212;2024-01-10T08:59:16;98946.44;;;-11.15;100.00
15674;BME280;7937;48.090;16.212;2024-01-10T09:02:18;98964.97;;;-10.74;100.00
15674;BME280;7937;48.090;16.212;2024-01-10T09:05:21;98682.19;;;-12.29;100.00
15674;BME280;7937;48.090;16.212;2024-01-10T09:08:24;98949.47;;;-10.73;100.00
15674;BME280;7937;48.090;16.212;2024-01-10T09:11:26;99046.78;;;-9.47;100.00
15674;BME280;7937;48.090;16.212;2024-01-10T09:14:29;98958.34;;;-9.49;100.00
15674;BME280;7937;48.090;16.212;2024-01-10T09:17:32;98703.03;;;-10.85;100.00
15674;BME280;7937;48.090;16.212;2024-01-10T09:20:34;98704.59;;;-10.51;100.00
15674;BME280;7937;48.090;16.212;2024-01-10T09:23:38;99012.06;;;-8.35;100.00
15674;BME280;7937;48.090;16.212;2024-01-10T09:26:40;98955.94;;;-8.33;100.00
15674;BME280;7937;48.090;16.212;2024-01-10T09:29:44;98793.34;;;-9.06;100.00
15674;BME280;7937;48.090;16.212;2024-01-10T09:32:47;98905.59;;;-7.99;100.00
15674;BME280;7937;48.090;16.212;2024-01-10T09:35:50;98821.91;;;-8.25;100.00
15674;BME280;7937;48.090;16.212;2024-01-10T09:38:53;98643.19;;;-9.27;99.00
15674;BME280;7937;48.090;16.212;2024-01-10T09:41:57;98691.03;;;-8.66;97.01
15674;BME280;7937;48.090;16.212;2024-01-10T09:45:01;98779.31;;;-7.65;96.40
15674;BME280;7937;48.090;16.212;2024-01-10T09:48:05;99050.63;;;-5.87;92.90
15674;BME280;7937;48.090;16.212;2024-01-10T09:51:09;98708.09;;;-7.84;93.50
15674;BME280;7937;48.090;16.212;2024-01-10T09:54:12;98713.94;;;-7.42;93.43
15674;BME280;7937;48.090;16.212;2024-01-10T09:57:16;98730.19;;;-7.27;92.75
15674;BME280;7937;48.090;16.212;2024-01-10T10:00:22;98694.47;;;-7.35;90.17
15674;BME280;7937;48.090;16.212;2024-01-10T10:03:54;98739.06;;;-7.06;91.35
15674;BME280;7937;48.090;16.212;2024-01-10T10:11:14;99126.56;;;-3.89;90.13
15674;BME280;7937;48.090;16.212;2024-01-10T10:14:18;99107.97;;;-3.84;89.68
15674;BME280;7937;48.090;16.212;2024-01-10T10:17:20;99123.38;;;-3.70;90.10
15674;BME280;7937;48.090;16.212;2024-01-10T10:20:32;99106.84;;;-3.58;83.23
15674;BME280;7937;48.090;16.212;2024-01-10T10:23:43;99109.69;;;-3.50;84.25
15674;BME280;7937;48.090;16.212;2024-01-10T10:26:59;99105.19;;;-3.37;85.19
15674;BME280;7937;48.090;16.212;2024-01-10T10:30:01;99085.91;;;-3.34;82.56
15674;BME280;7937;48.090;16.212;2024-01-10T10:33:04;99099.63;;;-3.09;82.69
15674;BME280;7937;48.090;16.212;2024-01-10T10:36:10;99105.16;;;-2.92;82.99
15674;BME280;7937;48.090;16.212;2024-01-10T10:39:16;99104.28;;;-2.81;76.61
15674;BME280;7937;48.090;16.212;2024-01-10T10:42:19;99095.56;;;-2.48;73.34
15674;BME280;7937;48.090;16.212;2024-01-10T10:45:25;99096.97;;;-2.44;74.35
15674;BME280;7937;48.090;16.212;2024-01-10T10:48:34;99087.19;;;-2.30;74.52
15674;BME280;7937;48.090;16.212;2024-01-10T10:51:38;99082.50;;;-2.16;72.64
15674;BME280;7937;48.090;16.212;2024-01-10T10:54:40;99084.47;;;-2.08;73.49
15674;BME280;7937;48.090;16.212;2024-01-10T10:57:45;99075.47;;;-1.94;71.11
15674;BME280;7937;48.090;16.212;2024-01-10T11:01:06;99073.00;;;-1.75;67.94
15674;BME280;7937;48.090;16.212;2024-01-10T11:04:08;99063.59;;;-1.77;67.95
15674;BME280;7937;48.090;16.212;2024-01-10T11:07:14;99047.13;;;-1.78;65.78
15674;BME280;7937;48.090;16.212;2024-01-10T11:10:37;99064.41;;;-1.56;67.88
15674;BME280;7937;48.090;16.212;2024-01-10T11:14:01;99043.91;;;-1.61;66.01
15674;BME280;7937;48.090;16.212;2024-01-10T11:20:43;99037.88;;;-1.21;64.54
15674;BME280;7937;48.090;16.212;2024-01-10T11:23:54;99016.22;;;-1.42;67.12
15674;BME280;7937;48.090;16.212;2024-01-10T11:30:11;99022.16;;;-1.31;66.60
15674;BME280;7937;48.090;16.212;2024-01-10T11:33:24;99024.19;;;-1.34;66.01
15674;BME280;7937;48.090;16.212;2024-01-10T11:36:27;99010.28;;;-1.35;65.20
15674;BME280;7937;48.090;16.212;2024-01-10T11:39:30;99006.59;;;-1.32;66.16
15674;BME280;7937;48.090;16.212;2024-01-10T11:42:43;99002.88;;;-1.30;66.55
15674;BME280;7937;48.090;16.212;2024-01-10T11:45:52;99008.81;;;-1.27;66.56
15674;BME280;7937;48.090;16.212;2024-01-10T11:48:56;99002.22;;;-1.22;67.29
15674;BME280;7937;48.090;16.212;2024-01-10T11:52:01;98997.41;;;-1.26;66.03
15674;BME280;7937;48.090;16.212;2024-01-10T11:55:04;98996.72;;;-1.19;64.67
15674;BME280;7937;48.090;16.212;2024-01-10T11:58:10;98996.84;;;-1.20;66.67
15674;BME280;7937;48.090;16.212;2024-01-10T12:01:13;98986.84;;;-1.06;64.22
15674;BME280;7937;48.090;16.212;2024-01-10T12:04:16;98991.25;;;-0.96;63.69
15674;BME280;7937;48.090;16.212;2024-01-10T12:07:30;98994.25;;;-1.11;66.05
15674;BME280;7937;48.090;16.212;2024-01-10T12:10:33;98985.44;;;-1.10;65.89
15674;BME280;7937;48.090;16.212;2024-01-10T12:13:38;98966.47;;;-1.02;65.20
15674;BME280;7937;48.090;16.212;2024-01-10T12:16:41;98985.44;;;-1.19;65.16
15674;BME280;7937;48.090;16.212;2024-01-10T12:19:43;98982.69;;;-1.27;66.13
15674;BME280;7937;48.090;16.212;2024-01-10T12:22:48;98987.53;;;-1.13;66.26
15674;BME280;7937;48.090;16.212;2024-01-10T12:25:50;98968.50;;;-1.15;65.71
15674;BME280;7937;48.090;16.212;2024-01-10T12:29:03;98981.19;;;-1.11;66.46
15674;BME280;7937;48.090;16.212;2024-01-10T12:32:07;98981.84;;;-1.28;67.76
15674;BME280;7937;48.090;16.212;2024-01-10T12:35:10;98980.09;;;-1.08;66.58
15674;BME280;7937;48.090;16.212;2024-01-10T12:38:12;98970.81;;;-1.41;67.67
15674;BME280;7937;48.090;16.212;2024-01-10T12:41:15;98971.34;;;-1.47;69.00
15674;BME280;7937;48.090;16.212;2024-01-10T12:44:18;98964.97;;;-1.64;70.47
15674;BME280;7937;48.090;16.212;2024-01-10T12:47:22;98976.13;;;-1.62;70.43
15674;BME280;7937;48.090;16.212;2024-01-10T12:50:28;98976.13;;;-1.62;71.79
15674;BME280;7937;48.090;16.212;2024-01-10T12:53:33;98982.81;;;-1.69;72.72
15674;BME280;7937;48.090;16.212;2024-01-10T12:56:36;98978.66;;;-1.82;74.16
15674;BME280;7937;48.090;16.212;2024-01-10T12:59:39;98978.22;;;-1.87;75.60
15674;BME280;7937;48.090;16.212;2024-01-10T13:02:41;98973.50;;;-1.93;75.77
15674;BME280;7937;48.090;16.212;2024-01-10T13:05:43;98982.16;;;-2.02;76.85
15674;BME280;7937;48.090;16.212;2024-01-10T13:08:46;98971.41;;;-1.99;78.04
15674;BME280;7937;48.090;16.212;2024-01-10T13:11:48;98973.25;;;-1.90;77.62
15674;BME280;7937;48.090;16.212;2024-01-10T13:14:51;98968.31;;;-1.83;78.19
15674;BME280;7937;48.090;16.212;2024-01-10T13:17:53;98975.47;;;-1.85;77.73
15674;BME280;7937;48.090;16.212;2024-01-10T13:20:55;98969.53;;;-1.97;78.02
15674;BME280;7937;48.090;16.212;2024-01-10T13:23:58;98961.81;;;-1.98;79.97
15674;BME280;7937;48.090;16.212;2024-01-10T13:27:00;98964.34;;;-1.77;78.94
15674;BME280;7937;48.090;16.212;2024-01-10T13:30:03;98960.41;;;-2.02;80.93
15674;BME280;7937;48.090;16.212;2024-01-10T13:33:07;98960.19;;;-2.20;82.87
15674;BME280;7937;48.090;16.212;2024-01-10T13:36:11;98964.31;;;-2.18;82.50
15674;BME280;7937;48.090;16.212;2024-01-10T13:39:13;98964.19;;;-2.16;83.00
15674;BME280;7937;48.090;16.212;2024-01-10T13:42:17;98968.13;;;-2.01;81.62
15674;BME280;7937;48.090;16.212;2024-01-10T13:45:19;98971.59;;;-1.91;81.32
15674;BME280;7937;48.090;16.212;2024-01-10T13:48:22;98972.56;;;-1.92;81.27
15674;BME280;7937;48.090;16.212;2024-01-10T13:51:25;98971.03;;;-1.94;81.99
15674;BME280;7937;48.090;16.212;2024-01-10T13:54:27;98971.16;;;-1.96;82.57
15674;BME280;7937;48.090;16.212;2024-01-10T13:57:29;98956.97;;;-2.03;83.04
15674;BME280;7937;48.090;16.212;2024-01-10T14:00:34;98958.22;;;-1.97;82.56
15674;BME280;7937;48.090;16.212;2024-01-10T14:03:36;98956.47;;;-1.97;83.36
15674;BME280;7937;48.090;16.212;2024-01-10T14:06:39;98960.78;;;-2.07;84.53
15674;BME280;7937;48.090;16.212;2024-01-10T14:09:41;98960.63;;;-2.15;85.32
15674;BME280;7937;48.090;16.212;2024-01-10T14:12:43;98962.38;;;-2.25;86.54
15674;BME280;7937;48.090;16.212;2024-01-10T14:15:45;98961.69;;;-2.18;86.14
15674;BME280;7937;48.090;16.212;2024-01-10T14:18:47;98961.66;;;-2.06;85.41
15674;BME280;7937;48.090;16.212;2024-01-10T14:21:50;98960.53;;;-2.04;84.76
15674;BME280;7937;48.090;16.212;2024-01-10T14:24:52;98958.91;;;-2.05;85.50
15674;BME280;7937;48.090;16.212;2024-01-10T14:27:57;98961.75;;;-2.08;86.09
15674;BME280;7937;48.090;16.212;2024-01-10T14:31:00;98956.03;;;-2.02;85.42
15674;BME280;7937;48.090;16.212;2024-01-10T14:34:19;98949.47;;;-1.96;84.85
15674;BME280;7937;48.090;16.212;2024-01-10T14:37:22;98955.19;;;-2.02;85.31
15674;BME280;7937;48.090;16.212;2024-01-10T14:40:24;98951.59;;;-2.11;86.59
15674;BME280;7937;48.090;16.212;2024-01-10T14:43:27;98943.03;;;-2.13;86.55
15674;BME280;7937;48.090;16.212;2024-01-10T14:46:29;98947.72;;;-2.17;86.49
15674;BME280;7937;48.090;16.212;2024-01-10T14:49:31;98939.84;;;-2.26;87.04
15674;BME280;7937;48.090;16.212;2024-01-10T14:52:34;98954.03;;;-2.40;87.91
15674;BME280;7937;48.090;16.212;2024-01-10T14:55:36;98955.25;;;-2.44;88.30
15674;BME280;7937;48.090;16.212;2024-01-10T14:58:39;98956.97;;;-2.54;88.93
15674;BME280;7937;48.090;16.212;2024-01-10T15:01:45;98947.72;;;-2.58;89.18
15674;BME280;7937;48.090;16.212;2024-01-10T15:04:48;98952.75;;;-2.67;90.71
15674;BME280;7937;48.090;16.212;2024-01-10T15:07:51;98949.31;;;-2.67;91.08
15674;BME280;7937;48.090;16.212;2024-01-10T15:10:53;98958.25;;;-2.81;91.36
15674;BME280;7937;48.090;16.212;2024-01-10T15:13:55;98958.72;;;-2.76;91.15
15674;BME280;7937;48.090;16.212;2024-01-10T15:16:58;98951.78;;;-2.87;92.52
15674;BME280;7937;48.090;16.212;2024-01-10T15:20:03;98956.53;;;-2.92;93.56
15674;BME280;7937;48.090;16.212;2024-01-10T15:23:05;98958.22;;;-2.70;92.11
15674;BME280;7937;48.090;16.212;2024-01-10T15:26:08;98959.75;;;-2.67;91.93
15674;BME280;7937;48.090;16.212;2024-01-10T15:29:10;98962.63;;;-2.70;91.96
15674;BME280;7937;48.090;16.212;2024-01-10T15:32:12;98956.38;;;-2.79;92.74
15674;BME280;7937;48.090;16.212;2024-01-10T15:35:15;98951.09;;;-2.89;92.87
15674;BME280;7937;48.090;16.212;2024-01-10T15:38:18;98944.31;;;-2.91;93.39
15674;BME280;7937;48.090;16.212;2024-01-10T15:41:20;98949.44;;;-2.90;93.42
15674;BME280;7937;48.090;16.212;2024-01-10T15:44:22;98942.41;;;-3.10;93.31
15674;BME280;7937;48.090;16.212;2024-01-10T15:47:27;98937.72;;;-3.27;94.41
15674;BME280;7937;48.090;16.212;2024-01-10T15:50:29;98938.72;;;-3.40;95.59
15674;BME280;7937;48.090;16.212;2024-01-10T15:53:31;98942.25;;;-3.41;96.53
15674;BME280;7937;48.090;16.212;2024-01-10T15:56:35;98932.66;;;-3.40;96.49
15674;BME280;7937;48.090;16.212;2024-01-10T15:59:41;98928.94;;;-3.58;96.80
15674;BME280;7937;48.090;16.212;2024-01-10T16:02:43;98928.56;;;-3.65;97.17
15674;BME280;7937;48.090;16.212;2024-01-10T16:05:46;98928.56;;;-3.65;98.63
15674;BME280;7937;48.090;16.212;2024-01-10T16:08:52;98927.88;;;-3.67;98.15